Mister Jim — WDJ2018 — position and weather

sailwx.info

Track history (hours):
 
Tides and Currents Weather Stations Pressure Air Temp Water Temp Dewpoint Dewpoint Depression Visibility Wind Speed Wind Dir Waves Ship Positions

Mister Jim

Owner: Coeymans Marine Towing LLC, Coeymans, NY. More information available from US FCC via Universal Licensing System and Coast Guard Vessel Documentation Center.

Last reported at 2018-Jun-24 01:35 UTC. Time now 2018-Jun-24 22:31 UTC.
Position N 40°44' W 074°01'.

Length 27 m; draft 4 m.

Type: Towing. MMSI: 367754450.

Date/timePositionNaut miles runAvg speedWind from/ knotsBaromVisibWave heightAir tempDewpointWater temp
2018-Jun-24 01:35N 40°44' W 074°01'1 8.0
2018-Jun-24 01:30N 40°44' W 074°01'4 7.8
2018-Jun-24 01:00N 40°40' W 074°02'0 0.8
2018-Jun-24 00:29N 40°40' W 074°02'0 1.0
2018-Jun-24 00:00N 40°40' W 074°02'4 7.0
2018-Jun-23 23:30N 40°44' W 074°01'1 0.0
2018-Jun-22 03:36N 40°45' W 074°01'0 3.1
2018-Jun-22 03:30N 40°44' W 074°01'2 3.0
2018-Jun-22 02:59N 40°43' W 074°01'2 3.3
2018-Jun-22 02:30N 40°41' W 074°02'2 3.3
2018-Jun-22 02:00N 40°40' W 074°03'0 0.1
2018-Jun-22 01:29N 40°40' W 074°03'2 3.3
2018-Jun-22 01:00N 40°41' W 074°02'4 3.0
2018-Jun-21 23:41N 40°44' W 073°58'1 5.4
2018-Jun-21 23:30N 40°43' W 073°58'2 4.3
2018-Jun-21 23:00N 40°41' W 074°01'1 2.4
2018-Jun-21 22:29N 40°40' W 074°01'0 0.0
2018-Jun-21 21:59N 40°40' W 074°01'0 0.0
2018-Jun-21 21:29N 40°40' W 074°01'0 0.0
2018-Jun-21 20:59N 40°40' W 074°01'0 0.0
2018-Jun-21 20:29N 40°40' W 074°01'0 0.0
2018-Jun-21 19:59N 40°40' W 074°01'0 0.0
2018-Jun-21 19:29N 40°40' W 074°01'0 0.0
2018-Jun-21 18:59N 40°40' W 074°01'0 0.0
2018-Jun-21 18:29N 40°40' W 074°01'0 0.0
2018-Jun-21 17:59N 40°40' W 074°01'1 1.2
2018-Jun-21 17:29N 40°40' W 074°01'4 1.2
2018-Jun-21 13:53N 40°39' W 074°07'2 1.3
2018-Jun-21 12:17N 40°40' W 074°04'1 2.0
2018-Jun-21 11:55N 40°40' W 074°03'2 5.3
2018-Jun-21 11:30N 40°42' W 074°01'4 3.5
2018-Jun-21 10:16N 40°44' W 073°57'2 4.3
2018-Jun-21 09:54N 40°43' W 073°58'3 6.3
2018-Jun-21 09:30N 40°41' W 074°01'2 3.7
2018-Jun-21 08:52N 40°40' W 074°03'1 3.9
2018-Jun-21 08:30N 40°41' W 074°02'4 7.0
2018-Jun-21 08:00N 40°45' W 074°01'  
2018-Jun-18 16:21N 40°44' W 074°01'2 6.7
2018-Jun-18 16:00N 40°42' W 074°02'2 4.7
2018-Jun-18 15:29N 40°40' W 074°03'0 0.7
2018-Jun-18 15:00N 40°40' W 074°03'2 3.3
2018-Jun-18 14:28N 40°40' W 074°01'0 0.0
2018-Jun-18 13:58N 40°40' W 074°01'0 0.0
2018-Jun-18 13:28N 40°40' W 074°01'0 0.0
2018-Jun-18 13:00N 40°40' W 074°01'0 0.0
2018-Jun-18 12:30N 40°40' W 074°01'0 0.0
2018-Jun-18 12:00N 40°40' W 074°01'0 0.0
2018-Jun-18 11:30N 40°40' W 074°01'0 0.0
2018-Jun-18 11:00N 40°40' W 074°01'0 0.0
2018-Jun-18 10:30N 40°40' W 074°01'0 0.0
2018-Jun-18 10:00N 40°40' W 074°01'0 0.0
2018-Jun-18 09:30N 40°40' W 074°01'0 0.0
2018-Jun-18 09:00N 40°40' W 074°01'0 0.0
2018-Jun-18 08:30N 40°40' W 074°01'0 0.0
2018-Jun-18 08:00N 40°40' W 074°01'0 0.0
2018-Jun-18 07:30N 40°40' W 074°01'0 0.0
2018-Jun-18 07:00N 40°40' W 074°01'0 0.0
2018-Jun-18 06:30N 40°40' W 074°01'2 3.3
2018-Jun-18 05:56N 40°40' W 074°03'0 0.1
2018-Jun-18 05:24N 40°40' W 074°03'1 1.7
2018-Jun-18 05:00N 40°40' W 074°02'2 4.5
2018-Jun-18 04:30N 40°42' W 074°00'1 2.7
2018-Jun-18 04:01N 40°43' W 073°59'1 0.7
2018-Jun-18 01:53N 40°44' W 073°58'4 9.5
2018-Jun-18 01:30N 40°41' W 074°01'2 3.6
2018-Jun-18 01:00N 40°40' W 074°03'2 3.9
2018-Jun-18 00:30N 40°39' W 074°05'3 6.0
2018-Jun-18 00:00N 40°38' W 074°09'4 3.2
2018-Jun-17 22:40N 40°39' W 074°03'1 4.4
2018-Jun-17 22:30N 40°40' W 074°03'2 4.5
2018-Jun-17 22:00N 40°40' W 074°00'0 0.1
2018-Jun-17 21:29N 40°40' W 074°00'0 0.1
2018-Jun-17 21:00N 40°40' W 074°00'1 2.1
2018-Jun-17 20:27N 40°40' W 074°02'1 2.6
2018-Jun-17 19:54N 40°41' W 074°02'2 6.1
2018-Jun-17 19:30N 40°43' W 074°01'  
2018-Jun-15 10:16N 40°45' W 074°01'1 2.6
2018-Jun-15 09:58N 40°45' W 074°01'1 2.8
2018-Jun-15 09:30N 40°43' W 074°01'1 2.6
2018-Jun-15 09:00N 40°42' W 074°02'1 2.3
2018-Jun-15 08:27N 40°41' W 074°02'1 1.8
2018-Jun-15 08:00N 40°40' W 074°03'0 0.6
2018-Jun-15 07:27N 40°40' W 074°03'0 0.1
2018-Jun-15 07:00N 40°40' W 074°03'0 0.1
2018-Jun-15 06:24N 40°40' W 074°03'0 0.1
2018-Jun-15 06:00N 40°40' W 074°03'2 4.7
2018-Jun-15 05:30N 40°40' W 074°00'0 0.1
2018-Jun-15 05:00N 40°40' W 074°00'3 5.8
2018-Jun-15 04:29N 40°39' W 074°04'1 0.2
2018-Jun-15 01:37N 40°39' W 074°04'1 8.1
2018-Jun-15 01:30N 40°40' W 074°03'1 2.2
2018-Jun-15 00:57N 40°40' W 074°02'2 4.8
2018-Jun-15 00:29N 40°42' W 074°00'2 3.2
2018-Jun-15 00:00N 40°43' W 073°59'  
Track history (hours):
 
Tides and Currents Weather Stations Pressure Air Temp Water Temp Dewpoint Dewpoint Depression Visibility Wind Speed Wind Dir Waves Ship Positions

Mister Jim

Owner: Coeymans Marine Towing LLC, Coeymans, NY. More information available from US FCC via Universal Licensing System and Coast Guard Vessel Documentation Center.

Last reported at 2018-Jun-24 01:35 UTC. Time now 2018-Jun-24 22:31 UTC.
Position N 40°44' W 074°01'.

Length 27 m; draft 4 m.

Type: Towing. MMSI: 367754450.

Date/timePositionNaut miles runAvg speedWind from/ knotsBaromVisibWave heightAir tempDewpointWater temp
2018-Jun-24 01:35N 40°44' W 074°01'1 8.0
2018-Jun-24 01:30N 40°44' W 074°01'4 7.8
2018-Jun-24 01:00N 40°40' W 074°02'0 0.8
2018-Jun-24 00:29N 40°40' W 074°02'0 1.0
2018-Jun-24 00:00N 40°40' W 074°02'4 7.0
2018-Jun-23 23:30N 40°44' W 074°01'1 0.0
2018-Jun-22 03:36N 40°45' W 074°01'0 3.1
2018-Jun-22 03:30N 40°44' W 074°01'2 3.0
2018-Jun-22 02:59N 40°43' W 074°01'2 3.3
2018-Jun-22 02:30N 40°41' W 074°02'2 3.3
2018-Jun-22 02:00N 40°40' W 074°03'0 0.1
2018-Jun-22 01:29N 40°40' W 074°03'2 3.3
2018-Jun-22 01:00N 40°41' W 074°02'4 3.0
2018-Jun-21 23:41N 40°44' W 073°58'1 5.4
2018-Jun-21 23:30N 40°43' W 073°58'2 4.3
2018-Jun-21 23:00N 40°41' W 074°01'1 2.4
2018-Jun-21 22:29N 40°40' W 074°01'0 0.0
2018-Jun-21 21:59N 40°40' W 074°01'0 0.0
2018-Jun-21 21:29N 40°40' W 074°01'0 0.0
2018-Jun-21 20:59N 40°40' W 074°01'0 0.0
2018-Jun-21 20:29N 40°40' W 074°01'0 0.0
2018-Jun-21 19:59N 40°40' W 074°01'0 0.0
2018-Jun-21 19:29N 40°40' W 074°01'0 0.0
2018-Jun-21 18:59N 40°40' W 074°01'0 0.0
2018-Jun-21 18:29N 40°40' W 074°01'0 0.0
2018-Jun-21 17:59N 40°40' W 074°01'1 1.2
2018-Jun-21 17:29N 40°40' W 074°01'4 1.2
2018-Jun-21 13:53N 40°39' W 074°07'2 1.3
2018-Jun-21 12:17N 40°40' W 074°04'1 2.0
2018-Jun-21 11:55N 40°40' W 074°03'2 5.3
2018-Jun-21 11:30N 40°42' W 074°01'4 3.5
2018-Jun-21 10:16N 40°44' W 073°57'2 4.3
2018-Jun-21 09:54N 40°43' W 073°58'3 6.3
2018-Jun-21 09:30N 40°41' W 074°01'2 3.7
2018-Jun-21 08:52N 40°40' W 074°03'1 3.9
2018-Jun-21 08:30N 40°41' W 074°02'4 7.0
2018-Jun-21 08:00N 40°45' W 074°01'  
2018-Jun-18 16:21N 40°44' W 074°01'2 6.7
2018-Jun-18 16:00N 40°42' W 074°02'2 4.7
2018-Jun-18 15:29N 40°40' W 074°03'0 0.7
2018-Jun-18 15:00N 40°40' W 074°03'2 3.3
2018-Jun-18 14:28N 40°40' W 074°01'0 0.0
2018-Jun-18 13:58N 40°40' W 074°01'0 0.0
2018-Jun-18 13:28N 40°40' W 074°01'0 0.0
2018-Jun-18 13:00N 40°40' W 074°01'0 0.0
2018-Jun-18 12:30N 40°40' W 074°01'0 0.0
2018-Jun-18 12:00N 40°40' W 074°01'0 0.0
2018-Jun-18 11:30N 40°40' W 074°01'0 0.0
2018-Jun-18 11:00N 40°40' W 074°01'0 0.0
2018-Jun-18 10:30N 40°40' W 074°01'0 0.0
2018-Jun-18 10:00N 40°40' W 074°01'0 0.0
2018-Jun-18 09:30N 40°40' W 074°01'0 0.0
2018-Jun-18 09:00N 40°40' W 074°01'0 0.0
2018-Jun-18 08:30N 40°40' W 074°01'0 0.0
2018-Jun-18 08:00N 40°40' W 074°01'0 0.0
2018-Jun-18 07:30N 40°40' W 074°01'0 0.0
2018-Jun-18 07:00N 40°40' W 074°01'0 0.0
2018-Jun-18 06:30N 40°40' W 074°01'2 3.3
2018-Jun-18 05:56N 40°40' W 074°03'0 0.1
2018-Jun-18 05:24N 40°40' W 074°03'1 1.7
2018-Jun-18 05:00N 40°40' W 074°02'2 4.5
2018-Jun-18 04:30N 40°42' W 074°00'1 2.7
2018-Jun-18 04:01N 40°43' W 073°59'1 0.7
2018-Jun-18 01:53N 40°44' W 073°58'4 9.5
2018-Jun-18 01:30N 40°41' W 074°01'2 3.6
2018-Jun-18 01:00N 40°40' W 074°03'2 3.9
2018-Jun-18 00:30N 40°39' W 074°05'3 6.0
2018-Jun-18 00:00N 40°38' W 074°09'4 3.2
2018-Jun-17 22:40N 40°39' W 074°03'1 4.4
2018-Jun-17 22:30N 40°40' W 074°03'2 4.5
2018-Jun-17 22:00N 40°40' W 074°00'0 0.1
2018-Jun-17 21:29N 40°40' W 074°00'0 0.1
2018-Jun-17 21:00N 40°40' W 074°00'1 2.1
2018-Jun-17 20:27N 40°40' W 074°02'1 2.6
2018-Jun-17 19:54N 40°41' W 074°02'2 6.1
2018-Jun-17 19:30N 40°43' W 074°01'  
2018-Jun-15 10:16N 40°45' W 074°01'1 2.6
2018-Jun-15 09:58N 40°45' W 074°01'1 2.8
2018-Jun-15 09:30N 40°43' W 074°01'1 2.6
2018-Jun-15 09:00N 40°42' W 074°02'1 2.3
2018-Jun-15 08:27N 40°41' W 074°02'1 1.8
2018-Jun-15 08:00N 40°40' W 074°03'0 0.6
2018-Jun-15 07:27N 40°40' W 074°03'0 0.1
2018-Jun-15 07:00N 40°40' W 074°03'0 0.1
2018-Jun-15 06:24N 40°40' W 074°03'0 0.1
2018-Jun-15 06:00N 40°40' W 074°03'2 4.7
2018-Jun-15 05:30N 40°40' W 074°00'0 0.1
2018-Jun-15 05:00N 40°40' W 074°00'3 5.8
2018-Jun-15 04:29N 40°39' W 074°04'1 0.2
2018-Jun-15 01:37N 40°39' W 074°04'1 8.1
2018-Jun-15 01:30N 40°40' W 074°03'1 2.2
2018-Jun-15 00:57N 40°40' W 074°02'2 4.8
2018-Jun-15 00:29N 40°42' W 074°00'2 3.2
2018-Jun-15 00:00N 40°43' W 073°59'  

Dump ship's entire track history